Time;durP1;ratioP1;P1;durP2;ratioP2;P2;SDS_P1;SDS_P2;PMS_P1;PMS_P2;Temp;Humidity;BMP_temperature;BMP_pressure;BME280_temperature;BME280_humidity;BME280_pressure;Samples;Min_cycle;Max_cycle;Signal;HPM_P1;HPM_P2
2021/07/02 00:00:28;;;;;;;8.15;3.42;;;14.30;99.90;;;;;;4977200;28;20375;-83
2021/07/02 00:02:53;;;;;;;5.75;3.60;;;14.30;99.90;;;;;;4977654;28;20036;-84
2021/07/02 00:05:19;;;;;;;8.57;3.70;;;14.40;99.90;;;;;;4977312;28;20031;-84
2021/07/02 00:07:45;;;;;;;5.32;3.75;;;14.40;99.90;;;;;;4977484;28;20029;-84
2021/07/02 00:10:11;;;;;;;4.88;3.90;;;14.30;99.90;;;;;;4977377;28;20359;-83
2021/07/02 00:12:37;;;;;;;6.45;3.60;;;14.40;99.90;;;;;;4977316;28;20018;-83
2021/07/02 00:15:04;;;;;;;6.40;3.60;;;14.40;99.90;;;;;;4977245;28;20034;-83
2021/07/02 00:17:30;;;;;;;11.90;4.25;;;14.50;99.90;;;;;;4977176;28;20030;-83
2021/07/02 00:19:55;;;;;;;6.40;3.63;;;14.30;99.90;;;;;;4977228;28;20500;-83
2021/07/02 00:22:21;;;;;;;5.15;3.67;;;14.30;99.90;;;;;;4994537;28;20081;-83
2021/07/02 00:24:47;;;;;;;7.20;3.80;;;14.30;99.90;;;;;;4976987;28;20030;-83
2021/07/02 00:27:12;;;;;;;5.15;3.80;;;14.40;99.90;;;;;;4976993;28;20057;-83
2021/07/02 00:29:38;;;;;;;9.02;4.00;;;14.40;99.90;;;;;;4976994;28;20022;-83
2021/07/02 00:32:04;;;;;;;6.20;3.47;;;14.30;99.90;;;;;;4977005;28;20045;-83
2021/07/02 00:34:30;;;;;;;11.00;3.95;;;14.10;99.90;;;;;;4994236;28;20026;-83
2021/07/02 00:36:55;;;;;;;6.80;3.45;;;14.30;99.90;;;;;;4976925;28;20548;-83
2021/07/02 00:39:21;;;;;;;10.95;3.72;;;14.20;99.90;;;;;;4994297;28;20018;-83
2021/07/02 00:41:47;;;;;;;8.63;4.32;;;14.20;99.90;;;;;;4976781;28;20113;-84
2021/07/02 00:44:12;;;;;;;9.63;4.47;;;14.00;99.90;;;;;;4994205;28;20105;-84
2021/07/02 00:46:39;;;;;;;7.80;4.38;;;13.80;99.90;;;;;;4976651;28;20055;-84
2021/07/02 00:49:04;;;;;;;6.35;4.20;;;13.70;99.90;;;;;;4976840;28;20042;-83
2021/07/02 00:51:31;;;;;;;9.07;3.97;;;13.80;99.90;;;;;;4976580;28;20019;-83
2021/07/02 00:53:58;;;;;;;5.82;3.63;;;13.90;99.90;;;;;;4994063;28;20046;-83
2021/07/02 00:56:24;;;;;;;5.80;3.60;;;14.00;99.90;;;;;;4976551;28;20386;-83
2021/07/02 00:58:50;;;;;;;7.28;3.42;;;14.10;99.90;;;;;;4976524;28;20026;-83
2021/07/02 01:01:17;;;;;;;9.68;4.07;;;14.10;99.90;;;;;;4976218;28;20379;-83
2021/07/02 01:03:43;;;;;;;7.05;3.63;;;14.10;99.90;;;;;;4993960;28;20478;-83
2021/07/02 01:06:10;;;;;;;9.05;4.03;;;14.10;99.90;;;;;;4976443;28;20041;-83
2021/07/02 01:08:36;;;;;;;9.05;4.13;;;14.10;99.90;;;;;;4976422;28;20525;-83
2021/07/02 01:11:02;;;;;;;6.20;3.70;;;14.10;99.90;;;;;;4976421;28;20026;-83
2021/07/02 01:13:28;;;;;;;4.65;3.67;;;13.90;99.90;;;;;;4976400;28;20378;-83
2021/07/02 01:15:55;;;;;;;11.13;4.20;;;13.90;99.90;;;;;;4976436;28;20041;-83
2021/07/02 01:18:24;;;;;;;8.55;4.20;;;13.80;99.90;;;;;;4976395;28;20038;-83
2021/07/02 01:20:54;;;;;;;9.32;4.55;;;13.90;99.90;;;;;;4993779;28;20027;-83
2021/07/02 01:23:20;;;;;;;7.90;4.35;;;13.80;99.90;;;;;;4993820;28;20030;-83
2021/07/02 01:25:47;;;;;;;7.80;3.90;;;13.70;99.90;;;;;;4976249;28;20031;-83
2021/07/02 01:28:14;;;;;;;7.97;3.85;;;14.00;99.90;;;;;;4976351;28;20442;-83
2021/07/02 01:30:41;;;;;;;10.70;4.13;;;14.10;99.90;;;;;;4976297;28;20022;-83
2021/07/02 01:33:08;;;;;;;5.57;3.55;;;14.10;99.90;;;;;;4976276;28;20029;-84
2021/07/02 01:35:34;;;;;;;8.10;3.65;;;14.10;99.90;;;;;;4993692;28;20101;-84
2021/07/02 01:38:00;;;;;;;9.18;4.32;;;14.10;99.90;;;;;;4993712;28;20061;-84
2021/07/02 01:40:26;;;;;;;9.68;3.92;;;13.90;99.90;;;;;;4976451;28;20085;-84
2021/07/02 01:42:52;;;;;;;9.18;4.20;;;13.80;99.90;;;;;;4976181;28;20026;-84
2021/07/02 01:45:17;;;;;;;5.53;3.97;;;13.80;99.90;;;;;;4976185;28;20034;-84
2021/07/02 01:47:43;;;;;;;8.73;3.85;;;13.80;99.90;;;;;;4993578;28;20057;-84
2021/07/02 01:50:09;;;;;;;6.07;4.15;;;14.10;99.90;;;;;;4976211;28;20470;-83
2021/07/02 01:52:35;;;;;;;8.68;4.03;;;14.00;99.90;;;;;;4976008;28;20033;-83
2021/07/02 01:55:01;;;;;;;5.82;3.75;;;14.10;99.90;;;;;;4976032;28;20113;-83
2021/07/02 01:57:28;;;;;;;8.20;4.22;;;14.00;99.90;;;;;;4976024;28;20030;-83
2021/07/02 01:59:54;;;;;;;8.38;4.57;;;13.80;99.90;;;;;;4978180;28;20027;-83
2021/07/02 02:02:21;;;;;;;9.18;4.50;;;13.70;99.90;;;;;;4980041;28;20037;-84
2021/07/02 02:04:47;;;;;;;6.15;3.97;;;13.50;99.90;;;;;;4979728;28;20080;-83
2021/07/02 02:07:13;;;;;;;7.53;4.20;;;13.50;99.90;;;;;;4979739;28;20030;-83
2021/07/02 02:09:38;;;;;;;7.43;4.50;;;13.60;99.90;;;;;;4979669;28;20114;-84
2021/07/02 02:12:05;;;;;;;5.15;4.20;;;13.80;99.90;;;;;;4997019;28;20058;-83
2021/07/02 02:14:31;;;;;;;5.78;4.30;;;13.80;99.90;;;;;;4979354;28;20030;-83
2021/07/02 02:16:57;;;;;;;5.63;4.07;;;13.90;99.90;;;;;;4979493;28;20027;-84
2021/07/02 02:19:23;;;;;;;8.30;4.25;;;14.00;99.90;;;;;;4979363;28;20027;-84
2021/07/02 02:21:50;;;;;;;10.02;4.45;;;14.10;99.90;;;;;;4979365;28;20018;-84
2021/07/02 02:24:17;;;;;;;7.22;4.45;;;14.00;99.90;;;;;;4979244;28;20027;-83
2021/07/02 02:26:43;;;;;;;5.97;4.22;;;13.90;99.90;;;;;;4979164;28;20490;-83
2021/07/02 02:29:08;;;;;;;5.53;4.30;;;13.90;99.90;;;;;;4979200;28;20018;-84
2021/07/02 02:31:34;;;;;;;6.10;4.05;;;14.00;99.90;;;;;;4979183;28;20147;-84
2021/07/02 02:34:00;;;;;;;9.15;4.38;;;13.90;99.90;;;;;;4979123;28;20030;-84
2021/07/02 02:36:26;;;;;;;6.47;4.00;;;14.10;99.90;;;;;;4979041;28;20030;-84
2021/07/02 02:38:52;;;;;;;5.47;3.80;;;13.90;99.90;;;;;;4978970;28;20026;-83
2021/07/02 02:41:18;;;;;;;5.82;4.00;;;14.00;99.90;;;;;;4996388;28;20034;-83
2021/07/02 02:43:44;;;;;;;7.07;4.38;;;14.00;99.90;;;;;;4978898;28;20464;-84
2021/07/02 02:46:10;;;;;;;6.22;4.00;;;14.00;99.90;;;;;;4978793;28;20062;-83
2021/07/02 02:48:35;;;;;;;5.93;4.10;;;13.90;99.90;;;;;;4978897;28;20363;-84
2021/07/02 02:51:01;;;;;;;6.80;3.92;;;13.90;99.90;;;;;;4978780;28;20022;-84
2021/07/02 02:53:27;;;;;;;7.00;4.15;;;14.10;99.90;;;;;;4978797;28;20022;-84
2021/07/02 02:55:53;;;;;;;5.47;3.88;;;14.10;99.90;;;;;;4978710;28;20022;-84
2021/07/02 02:58:19;;;;;;;6.15;3.95;;;13.90;99.90;;;;;;4978723;28;20037;-83
2021/07/02 03:00:44;;;;;;;11.95;4.50;;;13.90;99.90;;;;;;4978284;28;20042;-83
2021/07/02 03:03:10;;;;;;;5.97;4.15;;;13.80;99.90;;;;;;4978600;28;20023;-83
2021/07/02 03:05:36;;;;;;;5.53;4.10;;;13.80;99.90;;;;;;4978366;28;20030;-83
2021/07/02 03:08:03;;;;;;;8.55;3.97;;;13.70;99.90;;;;;;4978444;28;20046;-83
2021/07/02 03:10:30;;;;;;;9.60;4.05;;;13.80;99.90;;;;;;4977679;28;20031;-83
2021/07/02 03:12:56;;;;;;;6.97;3.97;;;13.80;99.90;;;;;;4978283;28;20022;-83
2021/07/02 03:15:22;;;;;;;6.05;4.28;;;13.90;99.90;;;;;;4978346;28;20034;-83
2021/07/02 03:17:48;;;;;;;9.70;4.15;;;13.90;99.90;;;;;;4995710;28;20023;-83
2021/07/02 03:20:13;;;;;;;6.35;3.78;;;13.90;99.90;;;;;;4978308;28;20026;-83
2021/07/02 03:22:41;;;;;;;8.68;4.32;;;13.80;99.90;;;;;;4978191;28;20546;-83
2021/07/02 03:25:08;;;;;;;7.28;3.63;;;13.70;99.90;;;;;;4978092;28;20027;-84
2021/07/02 03:27:34;;;;;;;8.10;4.50;;;13.40;99.90;;;;;;4978139;28;20030;-83
2021/07/02 03:30:00;;;;;;;6.40;3.90;;;13.30;99.90;;;;;;4978135;28;20485;-84
2021/07/02 03:32:26;;;;;;;4.68;3.78;;;13.40;99.90;;;;;;4977912;28;20157;-84
2021/07/02 03:34:52;;;;;;;6.05;3.90;;;13.60;99.90;;;;;;4977966;28;20112;-84
2021/07/02 03:37:18;;;;;;;9.63;3.88;;;13.70;99.90;;;;;;4995338;28;20413;-83
2021/07/02 03:39:44;;;;;;;6.43;4.03;;;13.80;99.90;;;;;;4977955;28;20034;-83
2021/07/02 03:42:10;;;;;;;10.30;4.00;;;13.90;99.90;;;;;;4977792;28;20080;-83
2021/07/02 03:44:36;;;;;;;5.88;3.95;;;13.90;99.90;;;;;;4977755;28;20022;-83
2021/07/02 03:47:02;;;;;;;9.95;3.90;;;13.70;99.90;;;;;;4977709;28;20478;-83
2021/07/02 03:49:28;;;;;;;12.07;4.25;;;13.70;99.90;;;;;;4977764;28;20023;-83
2021/07/02 03:51:54;;;;;;;5.60;3.78;;;13.70;99.90;;;;;;4977643;28;20114;-83
2021/07/02 03:54:20;;;;;;;6.10;3.97;;;13.80;99.90;;;;;;4977580;28;20129;-83
2021/07/02 03:59:30;;;;;;;6.25;3.88;;;13.60;99.90;;;;;;4995400;28;20044;-83
2021/07/02 04:01:55;;;;;;;9.30;4.32;;;13.60;99.90;;;;;;4977262;28;20141;-83
2021/07/02 04:04:22;;;;;;;6.43;4.18;;;13.80;99.90;;;;;;4995156;28;20030;-83
2021/07/02 04:06:48;;;;;;;5.95;4.00;;;13.70;99.90;;;;;;4994798;28;20030;-83
2021/07/02 04:09:14;;;;;;;7.00;3.97;;;13.90;99.90;;;;;;4977248;28;20060;-83
2021/07/02 04:11:40;;;;;;;5.28;3.45;;;13.70;99.90;;;;;;4977317;28;20054;-83
2021/07/02 04:14:06;;;;;;;5.15;3.60;;;13.70;99.90;;;;;;4977309;28;20445;-83
2021/07/02 04:16:32;;;;;;;6.10;3.90;;;13.70;99.90;;;;;;4977256;28;20069;-82
2021/07/02 04:18:58;;;;;;;8.38;4.20;;;13.80;99.90;;;;;;4994630;28;20046;-83
2021/07/02 04:21:23;;;;;;;6.97;3.97;;;13.80;99.90;;;;;;4977100;28;20028;-84
2021/07/02 04:23:49;;;;;;;5.18;3.80;;;13.80;99.90;;;;;;4977158;28;20121;-84
2021/07/02 04:26:15;;;;;;;9.07;4.05;;;13.60;99.90;;;;;;4977051;28;20035;-84
2021/07/02 04:28:41;;;;;;;12.65;4.07;;;13.50;99.90;;;;;;4976992;28;20018;-83
2021/07/02 04:31:07;;;;;;;9.88;4.47;;;13.30;99.90;;;;;;4976944;28;20030;-83
2021/07/02 04:33:33;;;;;;;6.60;4.90;;;13.70;99.90;;;;;;4976958;28;20026;-84
2021/07/02 04:35:59;;;;;;;8.73;4.82;;;13.60;99.90;;;;;;4976877;28;20417;-84
2021/07/02 04:38:25;;;;;;;8.82;4.72;;;13.60;99.90;;;;;;4976881;28;20437;-84
2021/07/02 04:40:51;;;;;;;6.88;4.10;;;13.60;99.90;;;;;;4994205;28;20049;-83
2021/07/02 04:43:17;;;;;;;4.88;3.80;;;13.60;99.90;;;;;;4976847;28;20482;-83
2021/07/02 04:45:43;;;;;;;7.35;3.83;;;13.90;99.90;;;;;;4976632;28;20069;-84
2021/07/02 04:48:09;;;;;;;5.57;3.42;;;13.80;99.90;;;;;;4976664;28;20061;-83
2021/07/02 04:50:35;;;;;;;10.38;4.07;;;13.90;99.90;;;;;;4976639;28;20027;-83
2021/07/02 04:53:00;;;;;;;5.05;3.90;;;13.80;99.90;;;;;;4976659;28;20562;-83
2021/07/02 04:55:26;;;;;;;5.78;4.15;;;13.90;99.90;;;;;;4976614;28;20113;-83
2021/07/02 04:57:52;;;;;;;5.45;3.88;;;14.00;99.90;;;;;;4976554;28;20548;-84
2021/07/02 05:00:20;;;;;;;9.02;3.92;;;14.00;99.90;;;;;;4976318;28;20050;-83
2021/07/02 05:02:46;;;;;;;7.10;4.35;;;13.70;99.90;;;;;;4976814;28;20033;-84
2021/07/02 05:05:12;;;;;;;5.47;3.88;;;13.70;99.90;;;;;;4993887;28;20031;-83
2021/07/02 05:07:39;;;;;;;10.57;3.85;;;13.60;99.90;;;;;;4976982;28;20049;-84
2021/07/02 05:10:06;;;;;;;6.97;3.47;;;13.90;99.90;;;;;;4993926;28;20030;-83
2021/07/02 05:12:33;;;;;;;10.68;3.80;;;13.90;99.90;;;;;;4993937;28;20502;-83
2021/07/02 05:14:59;;;;;;;8.48;4.25;;;14.00;99.90;;;;;;4993862;28;20023;-84
2021/07/02 05:17:26;;;;;;;10.70;4.50;;;14.00;99.90;;;;;;4976520;28;20031;-83
2021/07/02 05:19:52;;;;;;;7.32;4.20;;;14.00;99.90;;;;;;4976720;28;20037;-83
2021/07/02 05:22:19;;;;;;;6.38;4.18;;;14.00;99.90;;;;;;4976345;28;20026;-82
2021/07/02 05:24:49;;;;;;;16.45;4.70;;;14.10;99.90;;;;;;4976207;28;20053;-83
2021/07/02 05:27:16;;;;;;;8.40;4.38;;;14.20;99.90;;;;;;4976334;28;20050;-83
2021/07/02 05:29:44;;;;;;;5.80;4.47;;;14.40;99.90;;;;;;4976204;28;20029;-83
2021/07/02 05:32:09;;;;;;;8.98;3.80;;;14.60;99.90;;;;;;4976248;28;20027;-83
2021/07/02 05:34:35;;;;;;;5.32;4.07;;;14.70;99.90;;;;;;4995638;28;20146;-83
2021/07/02 05:37:02;;;;;;;12.35;5.05;;;14.80;99.90;;;;;;4997555;28;20056;-83
2021/07/02 05:39:28;;;;;;;13.25;4.28;;;14.80;99.90;;;;;;4980019;28;20433;-83
2021/07/02 05:41:54;;;;;;;14.20;4.57;;;14.90;99.90;;;;;;4980014;28;20022;-83
2021/07/02 05:44:19;;;;;;;10.65;4.47;;;15.00;99.90;;;;;;4979985;28;20034;-83
2021/07/02 05:46:45;;;;;;;12.93;4.60;;;15.10;99.90;;;;;;4980171;28;20389;-83
2021/07/02 05:49:12;;;;;;;11.38;4.50;;;15.10;99.90;;;;;;4979908;28;20026;-83
2021/07/02 05:51:38;;;;;;;6.07;4.47;;;15.20;99.90;;;;;;4997291;28;20544;-83
2021/07/02 05:54:04;;;;;;;6.40;4.65;;;15.30;99.90;;;;;;4997179;28;20023;-83
2021/07/02 05:56:34;;;;;;;9.65;5.47;;;15.30;99.90;;;;;;4979640;28;20065;-83
2021/07/02 05:59:00;;;;;;;7.15;4.72;;;15.40;99.90;;;;;;4979760;28;20018;-83
2021/07/02 06:01:27;;;;;;;16.55;5.72;;;15.40;99.90;;;;;;4979406;28;20050;-83
2021/07/02 06:03:53;;;;;;;10.63;4.35;;;15.50;99.90;;;;;;4997113;28;20027;-83
2021/07/02 06:06:19;;;;;;;7.15;4.20;;;15.50;99.90;;;;;;4997271;28;20050;-83
2021/07/02 06:08:46;;;;;;;7.90;4.93;;;15.60;99.90;;;;;;4979542;28;20113;-84
2021/07/02 06:11:11;;;;;;;6.07;4.65;;;15.70;99.90;;;;;;4979509;28;20030;-83
2021/07/02 06:13:37;;;;;;;7.93;4.97;;;15.70;99.90;;;;;;4979406;28;20478;-83
2021/07/02 06:16:04;;;;;;;5.82;4.50;;;15.80;99.90;;;;;;4979416;28;20026;-83
2021/07/02 06:18:30;;;;;;;5.63;4.32;;;15.80;99.90;;;;;;4979350;28;20034;-83
2021/07/02 06:20:55;;;;;;;16.45;5.28;;;15.90;99.90;;;;;;4997025;28;20462;-82
2021/07/02 06:23:22;;;;;;;11.82;5.68;;;15.90;99.90;;;;;;4979307;28;20037;-83
2021/07/02 06:25:49;;;;;;;6.13;5.15;;;16.00;99.90;;;;;;4979105;28;20037;-83
2021/07/02 06:28:15;;;;;;;12.57;5.57;;;16.00;99.90;;;;;;4979345;28;20023;-82
2021/07/02 06:30:42;;;;;;;8.32;5.20;;;16.00;99.90;;;;;;4979267;28;20037;-83
2021/07/02 06:33:09;;;;;;;11.63;5.32;;;16.00;99.90;;;;;;4979146;28;20026;-82
2021/07/02 06:35:35;;;;;;;9.70;5.97;;;15.80;99.90;;;;;;4979007;28;20398;-83
2021/07/02 06:38:01;;;;;;;12.75;5.40;;;15.80;99.90;;;;;;4996487;28;20026;-83
2021/07/02 06:40:27;;;;;;;9.50;5.40;;;15.90;99.90;;;;;;4979019;28;20034;-83
2021/07/02 06:42:53;;;;;;;18.77;5.28;;;16.00;99.90;;;;;;4978897;28;20045;-83
2021/07/02 06:45:18;;;;;;;9.55;4.95;;;16.10;99.90;;;;;;4977742;28;20486;-83
2021/07/02 06:47:57;;;;;;;8.32;5.50;;;16.20;99.90;;;;;;4996217;28;20478;-82
2021/07/02 06:50:35;;;;;;;7.07;5.15;;;16.30;99.90;;;;;;4996489;28;20018;-83
2021/07/02 06:53:04;;;;;;;7.47;5.05;;;16.50;99.90;;;;;;4996162;28;20018;-83
2021/07/02 06:55:30;;;;;;;7.68;5.00;;;16.60;99.90;;;;;;4978610;28;20030;-83
2021/07/02 06:57:56;;;;;;;10.15;5.60;;;16.70;99.90;;;;;;4978666;28;20437;-82
2021/07/02 07:00:23;;;;;;;9.93;5.38;;;16.80;99.90;;;;;;4978418;28;20097;-82
2021/07/02 07:02:49;;;;;;;8.30;5.38;;;16.90;99.90;;;;;;4978549;28;20026;-82
2021/07/02 07:05:16;;;;;;;6.25;4.85;;;17.00;99.90;;;;;;4995867;28;20026;-82
2021/07/02 07:07:42;;;;;;;9.15;5.22;;;17.20;99.90;;;;;;4978473;28;20022;-82
2021/07/02 07:10:09;;;;;;;8.70;4.60;;;17.40;99.90;;;;;;4978400;28;20030;-81
2021/07/02 07:12:35;;;;;;;10.13;5.07;;;17.30;99.90;;;;;;4979753;28;20026;-82
2021/07/02 07:15:01;;;;;;;15.10;4.90;;;17.10;99.90;;;;;;4979450;28;20121;-82
2021/07/02 07:17:27;;;;;;;15.52;4.80;;;17.10;99.90;;;;;;4978290;28;20066;-82
2021/07/02 07:19:53;;;;;;;14.63;4.40;;;17.20;99.90;;;;;;4995705;28;20031;-82
2021/07/02 07:22:18;;;;;;;10.18;4.72;;;17.20;99.90;;;;;;4995689;28;20053;-82
2021/07/02 07:24:45;;;;;;;7.93;4.15;;;17.30;99.90;;;;;;4978036;28;20022;-82
2021/07/02 07:27:11;;;;;;;7.63;4.80;;;17.40;99.90;;;;;;4978396;28;20037;-82
2021/07/02 07:29:37;;;;;;;9.27;4.60;;;17.40;99.90;;;;;;4995523;28;20026;-82
2021/07/02 07:32:04;;;;;;;11.45;4.72;;;17.30;99.90;;;;;;4995388;28;20093;-82
2021/07/02 07:34:45;;;;;;;6.65;4.45;;;17.30;99.90;;;;;;4978021;28;20046;-82
2021/07/02 07:37:16;;;;;;;6.40;4.95;;;17.40;99.90;;;;;;4977946;28;20026;-82
2021/07/02 07:39:42;;;;;;;7.07;4.25;;;17.50;99.90;;;;;;4977933;28;20028;-83
2021/07/02 07:42:08;;;;;;;9.05;3.78;;;17.50;99.90;;;;;;4977862;28;20389;-82
2021/07/02 07:44:33;;;;;;;5.40;4.32;;;17.40;99.90;;;;;;4977730;28;20039;-82
2021/07/02 07:46:59;;;;;;;7.47;5.18;;;17.20;99.90;;;;;;4977614;28;20026;-82
2021/07/02 07:49:25;;;;;;;6.88;4.15;;;17.30;99.90;;;;;;4995174;28;20363;-82
2021/07/02 07:51:58;;;;;;;12.52;4.05;;;17.50;99.90;;;;;;4977657;28;20019;-82
2021/07/02 07:54:24;;;;;;;6.68;4.50;;;17.80;99.90;;;;;;4977594;28;20029;-80
2021/07/02 07:56:53;;;;;;;7.20;4.38;;;17.90;99.90;;;;;;4995037;28;20401;-82
2021/07/02 07:59:20;;;;;;;6.88;4.45;;;18.00;99.90;;;;;;4977420;28;20030;-82
2021/07/02 08:01:47;;;;;;;5.97;4.10;;;18.30;99.90;;;;;;4977332;28;20050;-82
2021/07/02 08:04:15;;;;;;;6.18;3.72;;;18.40;99.90;;;;;;4977370;28;20504;-82
2021/07/02 08:06:42;;;;;;;7.97;4.50;;;18.40;99.90;;;;;;4977214;28;20035;-81
2021/07/02 08:09:08;;;;;;;7.07;4.47;;;18.50;99.90;;;;;;4977328;28;20026;-82
2021/07/02 08:11:34;;;;;;;10.50;4.70;;;18.50;99.90;;;;;;4977248;28;20076;-82
2021/07/02 08:14:00;;;;;;;8.52;4.07;;;18.30;99.90;;;;;;4994683;28;20097;-83
2021/07/02 08:16:26;;;;;;;9.32;4.50;;;18.30;99.90;;;;;;4994902;28;20034;-82
2021/07/02 08:18:52;;;;;;;6.78;3.97;;;18.40;99.90;;;;;;4977168;28;20031;-83
2021/07/02 08:21:18;;;;;;;11.27;4.28;;;18.60;99.90;;;;;;4977131;28;20022;-83
2021/07/02 08:23:44;;;;;;;7.30;4.22;;;18.80;99.90;;;;;;4977168;28;20030;-82
2021/07/02 08:26:11;;;;;;;9.23;4.00;;;19.10;99.90;;;;;;4994310;28;20072;-82
2021/07/02 08:31:22;;;;;;;8.40;3.85;;;19.30;99.90;;;;;;4994958;28;20033;-82
2021/07/02 08:33:47;;;;;;;5.68;4.18;;;19.50;99.90;;;;;;4994388;28;20022;-82
2021/07/02 08:36:13;;;;;;;7.72;4.35;;;19.30;99.90;;;;;;4976828;28;20030;-82
2021/07/02 08:38:39;;;;;;;7.82;4.00;;;19.00;99.90;;;;;;4976827;28;20110;-82
2021/07/02 08:41:07;;;;;;;5.03;3.75;;;18.80;99.90;;;;;;4977112;28;20481;-82
2021/07/02 08:43:33;;;;;;;9.40;3.97;;;18.80;99.90;;;;;;4976757;28;20026;-82
2021/07/02 08:45:58;;;;;;;5.28;3.97;;;18.90;99.90;;;;;;4976608;28;20101;-82
2021/07/02 08:48:26;;;;;;;8.45;4.00;;;19.00;99.90;;;;;;4976710;28;20105;-82
2021/07/02 08:50:53;;;;;;;5.03;3.72;;;19.10;99.90;;;;;;4976610;28;20022;-84
2021/07/02 08:53:18;;;;;;;9.00;4.07;;;19.10;99.90;;;;;;4994020;28;20034;-83
2021/07/02 08:55:44;;;;;;;6.78;4.10;;;19.20;99.90;;;;;;4976566;28;20402;-83
2021/07/02 08:58:14;;;;;;;7.53;3.53;;;19.20;99.90;;;;;;4976643;28;20169;-82
2021/07/02 09:00:41;;;;;;;5.00;3.58;;;19.60;99.90;;;;;;4993740;28;20533;-83
2021/07/02 09:03:27;;;;;;;6.28;3.83;;;19.90;99.90;;;;;;4993930;28;20033;-82
2021/07/02 09:05:53;;;;;;;7.63;3.92;;;20.20;99.90;;;;;;4976365;28;20027;-82
2021/07/02 09:08:19;;;;;;;8.02;3.63;;;19.80;99.90;;;;;;4975886;28;20030;-82
2021/07/02 09:10:46;;;;;;;8.15;4.18;;;19.60;99.90;;;;;;4976366;28;20037;-82
2021/07/02 09:13:13;;;;;;;6.50;3.78;;;19.70;99.90;;;;;;4976400;28;20026;-83
2021/07/02 09:15:52;;;;;;;7.13;3.90;;;19.90;99.90;;;;;;4976366;28;20034;-83
2021/07/02 09:18:18;;;;;;;6.47;3.70;;;20.00;99.90;;;;;;4976384;28;20026;-82
2021/07/02 09:20:46;;;;;;;5.13;3.28;;;20.30;99.90;;;;;;4993772;28;20544;-82
2021/07/02 09:23:14;;;;;;;6.70;3.90;;;20.30;99.90;;;;;;4976252;28;20037;-82
2021/07/02 09:25:47;;;;;;;5.20;4.00;;;20.60;99.90;;;;;;4976103;28;20121;-82
2021/07/02 09:28:15;;;;;;;9.65;3.80;;;20.70;99.90;;;;;;4993789;28;20025;-83
2021/07/02 09:30:49;;;;;;;6.75;4.07;;;20.60;99.90;;;;;;4993704;28;20026;-82
2021/07/02 09:33:19;;;;;;;8.18;3.72;;;20.80;99.90;;;;;;4976325;28;20152;-83
2021/07/02 09:35:51;;;;;;;5.53;3.13;;;21.10;99.90;;;;;;4976243;28;20124;-82
2021/07/02 09:38:19;;;;;;;3.42;2.75;;;21.00;99.90;;;;;;4993714;28;20065;-82
2021/07/02 09:40:48;;;;;;;6.28;2.95;;;20.70;99.90;;;;;;4976199;28;20371;-83
2021/07/02 09:43:15;;;;;;;4.53;3.25;;;20.90;99.90;;;;;;4993581;28;20489;-83
2021/07/02 09:45:50;;;;;;;4.18;3.13;;;21.30;99.90;;;;;;4976110;28;20030;-84
2021/07/02 09:48:17;;;;;;;6.25;3.30;;;21.50;99.90;;;;;;4976135;28;20072;-83
2021/07/02 09:50:54;;;;;;;4.15;2.90;;;21.60;99.90;;;;;;4976127;28;20490;-84
2021/07/02 09:53:33;;;;;;;6.18;3.30;;;21.70;99.90;;;;;;4976130;28;20030;-84
2021/07/02 09:56:03;;;;;;;4.03;3.10;;;21.80;99.90;;;;;;4993758;28;20031;-82
2021/07/02 09:58:37;;;;;;;4.43;3.05;;;21.90;99.90;;;;;;4993675;28;20072;-82
2021/07/02 10:01:04;;;;;;;2.80;2.45;;;22.10;99.90;;;;;;4993291;28;20134;-82
2021/07/02 10:03:34;;;;;;;6.25;3.10;;;22.40;99.90;;;;;;4975788;28;20031;-81
2021/07/02 10:06:02;;;;;;;4.82;2.85;;;22.30;99.90;;;;;;4975919;28;20033;-82
2021/07/02 10:08:30;;;;;;;3.90;2.55;;;22.20;99.90;;;;;;4993371;28;20019;-82
2021/07/02 10:10:58;;;;;;;3.75;3.00;;;22.00;99.90;;;;;;4993292;28;20031;-82
2021/07/02 10:13:30;;;;;;;2.97;2.67;;;22.40;99.90;;;;;;4975905;28;20026;-84
2021/07/02 10:15:57;;;;;;;4.78;3.00;;;22.40;99.90;;;;;;4976160;28;20429;-83
2021/07/02 10:18:27;;;;;;;4.50;3.00;;;22.70;99.90;;;;;;4993328;28;20482;-83
2021/07/02 10:20:55;;;;;;;4.63;3.13;;;23.00;99.90;;;;;;4977831;28;20029;-83
2021/07/02 10:23:39;;;;;;;6.70;3.33;;;23.00;99.90;;;;;;4979168;28;20505;-83
2021/07/02 10:26:07;;;;;;;4.35;3.13;;;22.60;99.90;;;;;;4996621;28;20548;-83
2021/07/02 10:28:36;;;;;;;3.60;3.03;;;22.70;99.90;;;;;;4979065;28;20030;-82
2021/07/02 10:31:03;;;;;;;6.38;3.25;;;22.60;99.90;;;;;;4979019;28;20431;-83
2021/07/02 10:33:32;;;;;;;3.97;3.40;;;22.60;99.90;;;;;;4979245;28;20033;-82
2021/07/02 10:36:00;;;;;;;5.45;3.45;;;22.80;99.90;;;;;;4979105;28;20030;-82
2021/07/02 10:38:46;;;;;;;6.05;3.00;;;22.40;99.70;;;;;;4978909;28;20030;-83
2021/07/02 10:41:24;;;;;;;6.05;3.08;;;22.20;99.90;;;;;;4978943;28;20450;-83
2021/07/02 10:44:10;;;;;;;4.78;3.47;;;22.30;99.90;;;;;;4996314;28;20390;-83
2021/07/02 10:46:37;;;;;;;8.68;3.40;;;23.00;99.90;;;;;;4978713;28;20023;-83
2021/07/02 10:49:05;;;;;;;4.35;3.38;;;23.40;99.90;;;;;;4996527;28;20022;-82
2021/07/02 10:51:30;;;;;;;3.70;3.17;;;23.50;99.90;;;;;;4978653;28;20030;-83
2021/07/02 10:54:11;;;;;;;4.47;3.13;;;23.80;98.60;;;;;;4979197;28;20022;-82
2021/07/02 10:56:38;;;;;;;5.43;3.30;;;23.90;99.90;;;;;;4996061;28;20026;-82
2021/07/02 10:59:04;;;;;;;9.95;3.17;;;23.80;99.40;;;;;;4979092;28;20026;-83
2021/07/02 11:01:31;;;;;;;4.45;3.30;;;24.20;98.00;;;;;;4995828;28;20046;-82
2021/07/02 11:04:30;;;;;;;4.00;3.30;;;24.10;97.80;;;;;;4978530;28;20033;-83
2021/07/02 11:06:55;;;;;;;6.05;3.47;;;24.20;98.40;;;;;;4978387;28;20022;-84
2021/07/02 11:10:00;;;;;;;5.13;3.25;;;24.60;97.50;;;;;;4996192;28;20033;-84
2021/07/02 11:12:28;;;;;;;4.43;3.83;;;24.80;98.40;;;;;;4978495;28;20124;-85
2021/07/02 11:14:53;;;;;;;4.88;3.20;;;25.20;97.20;;;;;;4978343;28;20049;-85
2021/07/02 11:17:23;;;;;;;6.22;3.13;;;24.90;96.90;;;;;;4978304;28;20027;-84
2021/07/02 11:20:10;;;;;;;4.18;2.90;;;;;;;;;;4978275;28;20548;-84
2021/07/02 11:22:46;;;;;;;3.60;3.10;;;25.80;95.10;;;;;;4978111;28;20026;-83
2021/07/02 11:25:41;;;;;;;4.57;3.22;;;25.20;96.10;;;;;;4995550;28;20393;-84
2021/07/02 11:28:08;;;;;;;5.18;3.03;;;24.80;96.90;;;;;;4978218;28;20026;-84
2021/07/02 11:30:37;;;;;;;5.78;3.50;;;24.60;97.10;;;;;;4978086;28;20027;-88
2021/07/02 11:33:07;;;;;;;4.60;3.60;;;24.90;96.70;;;;;;4977431;28;20022;-87
2021/07/02 11:35:41;;;;;;;4.43;3.65;;;25.30;96.20;;;;;;4982338;28;20362;-83
2021/07/02 11:38:17;;;;;;;4.97;3.33;;;25.20;95.50;;;;;;4995353;28;20058;-82
2021/07/02 11:40:47;;;;;;;3.70;2.88;;;25.40;95.50;;;;;;4977887;28;20030;-82
2021/07/02 11:43:13;;;;;;;3.63;2.95;;;25.80;94.40;;;;;;4977844;28;20026;-82
2021/07/02 11:45:43;;;;;;;5.45;3.55;;;25.20;95.10;;;;;;4977717;28;20039;-82
2021/07/02 11:48:26;;;;;;;4.53;3.33;;;24.20;95.60;;;;;;4995181;28;20029;-82
2021/07/02 11:50:57;;;;;;;5.18;3.38;;;24.70;95.60;;;;;;4977800;28;20053;-82
2021/07/02 11:53:35;;;;;;;3.10;2.75;;;25.30;95.00;;;;;;4995123;28;20094;-81
2021/07/02 11:56:06;;;;;;;3.28;2.72;;;25.50;94.60;;;;;;4977609;28;20034;-82
2021/07/02 11:58:45;;;;;;;5.05;3.35;;;25.60;92.90;;;;;;4977811;28;20536;-82
2021/07/02 12:01:17;;;;;;;4.07;3.13;;;26.20;94.10;;;;;;4973702;28;20053;-82
2021/07/02 12:03:50;;;;;;;4.90;2.90;;;27.20;99.30;;;;;;4994868;28;20402;-82
2021/07/02 12:06:24;;;;;;;6.97;3.63;;;27.30;99.40;;;;;;4977446;28;20035;-82
2021/07/02 12:08:51;;;;;;;;;;;27.30;93.20;;;;;;4978021;28;20494;-82
2021/07/02 12:11:26;;;;;;;3.72;3.10;;;27.40;91.90;;;;;;4977468;28;20285;-82
2021/07/02 12:13:51;;;;;;;5.13;3.47;;;26.20;93.30;;;;;;4977558;28;20019;-79
2021/07/02 12:16:17;;;;;;;3.70;2.70;;;25.80;92.40;;;;;;4977242;28;20474;-80
2021/07/02 12:18:43;;;;;;;3.35;3.00;;;25.80;92.40;;;;;;4994921;28;20081;-80
2021/07/02 12:21:11;;;;;;;6.72;3.38;;;26.10;93.50;;;;;;4977167;28;20029;-80
2021/07/02 12:23:43;;;;;;;4.13;3.15;;;26.60;92.90;;;;;;4977113;28;20041;-80
2021/07/02 12:26:16;;;;;;;5.78;3.25;;;26.60;92.20;;;;;;4977095;28;20121;-80
2021/07/02 12:28:58;;;;;;;6.53;3.72;;;26.70;92.30;;;;;;4977051;28;20019;-80
2021/07/02 12:31:31;;;;;;;5.78;3.25;;;27.40;91.80;;;;;;4976948;28;20117;-79
2021/07/02 12:33:57;;;;;;;4.25;3.10;;;27.20;90.30;;;;;;4994388;28;20019;-79
2021/07/02 12:36:24;;;;;;;4.85;3.13;;;27.10;90.30;;;;;;4976892;28;20118;-79
2021/07/02 12:39:00;;;;;;;5.75;2.95;;;26.80;91.90;;;;;;4976892;28;20030;-80
2021/07/02 12:41:34;;;;;;;3.72;3.03;;;26.10;91.20;;;;;;4977148;28;20026;-80
2021/07/02 12:44:00;;;;;;;6.82;2.97;;;26.20;91.10;;;;;;4975977;28;20060;-80
2021/07/02 12:46:27;;;;;;;4.97;3.42;;;26.80;92.20;;;;;;4976779;28;20522;-80
2021/07/02 12:49:32;;;;;;;4.80;3.38;;;26.80;90.70;;;;;;4976739;28;20022;-80
2021/07/02 12:55:00;;;;;;;4.10;3.03;;;27.20;90.60;;;;;;4994177;28;20053;-80
2021/07/02 12:57:47;;;;;;;4.85;3.22;;;27.00;89.50;;;;;;4976683;28;20025;-81